createdAt,value
2023-10-03T00:01:24.087Z,101218.45
2023-10-03T00:03:40.590Z,101213.23
2023-10-03T00:05:57.301Z,101211.10
2023-10-03T00:08:15.831Z,101204.31
2023-10-03T00:10:32.364Z,101207.92
2023-10-03T00:13:09.529Z,101211.35
2023-10-03T00:15:28.131Z,101207.69
2023-10-03T00:17:43.926Z,101205.66
2023-10-03T00:19:59.894Z,101202.45
2023-10-03T00:22:23.697Z,101206.54
2023-10-03T00:24:46.069Z,101206.60
2023-10-03T00:27:01.710Z,101204.11
2023-10-03T00:29:25.702Z,101203.12
2023-10-03T00:31:38.705Z,101201.58
2023-10-03T00:34:00.073Z,101196.91
2023-10-03T00:36:24.616Z,101192.97
2023-10-03T00:38:58.110Z,101187.15
2023-10-03T00:41:16.320Z,101180.45
2023-10-03T00:43:32.222Z,101176.74
2023-10-03T00:45:45.222Z,101171.27
2023-10-03T00:48:00.658Z,101167.17
2023-10-03T00:50:25.946Z,101161.52
2023-10-03T00:53:00.344Z,101157.50
2023-10-03T00:55:26.940Z,101155.59
2023-10-03T00:58:08.897Z,101155.47
2023-10-03T01:00:27.555Z,101152.86
2023-10-03T01:02:52.678Z,101151.30
2023-10-03T01:05:27.865Z,101148.99
2023-10-03T01:07:54.635Z,101140.56
2023-10-03T01:10:12.491Z,101144.20
2023-10-03T01:12:35.008Z,101144.60
2023-10-03T01:14:51.561Z,101143.25
2023-10-03T01:17:25.829Z,101143.27
2023-10-03T01:19:40.017Z,101140.29
2023-10-03T01:21:56.161Z,101131.41
2023-10-03T01:24:14.102Z,101126.34
2023-10-03T01:26:30.167Z,101129.89
2023-10-03T01:28:45.923Z,101126.52
2023-10-03T01:31:01.634Z,101124.95
2023-10-03T01:33:28.835Z,101109.88
2023-10-03T01:35:41.783Z,101107.67
2023-10-03T01:38:04.887Z,101106.73
2023-10-03T01:40:21.870Z,101106.17
2023-10-03T01:42:55.637Z,101102.80
2023-10-03T01:45:10.768Z,101098.71
2023-10-03T01:47:23.734Z,101099.33
2023-10-03T01:49:56.923Z,101096.41
2023-10-03T01:52:29.365Z,101092.77
2023-10-03T01:54:52.730Z,101089.64
2023-10-03T01:57:25.521Z,101092.16
2023-10-03T01:59:44.067Z,101087.38
2023-10-03T02:01:56.688Z,101084.94
2023-10-03T02:04:21.431Z,101078.17
2023-10-03T02:06:45.112Z,101073.54
2023-10-03T02:09:17.919Z,101069.58
2023-10-03T02:11:44.193Z,101061.95
2023-10-03T02:14:02.072Z,101057.48
2023-10-03T02:16:17.281Z,101049.23
2023-10-03T02:18:30.277Z,101055.52
2023-10-03T02:20:53.650Z,101054.31
2023-10-03T02:23:12.046Z,101049.69
2023-10-03T02:25:32.168Z,101042.84
2023-10-03T02:27:55.497Z,101044.58
2023-10-03T02:30:27.678Z,101041.61
2023-10-03T02:32:40.812Z,101038.48
2023-10-03T02:35:16.595Z,101033.69
2023-10-03T02:37:50.273Z,101033.06
2023-10-03T02:40:03.490Z,101033.45
2023-10-03T02:42:36.556Z,101037.84
2023-10-03T02:45:01.536Z,101039.50
2023-10-03T02:47:14.488Z,101040.93
2023-10-03T02:49:37.119Z,101036.06
2023-10-03T02:51:51.356Z,101036.56
2023-10-03T02:54:13.133Z,101035.88
2023-10-03T02:56:36.112Z,101036.61
2023-10-03T02:59:08.922Z,101036.31
2023-10-03T03:01:23.374Z,101035.63
2023-10-03T03:03:51.111Z,101039.18
2023-10-03T03:06:24.986Z,101037.34
2023-10-03T03:08:58.183Z,101033.44
2023-10-03T03:11:21.212Z,101031.39
2023-10-03T03:13:54.525Z,101026.95
2023-10-03T03:16:27.752Z,101027.23
2023-10-03T03:18:44.738Z,101025.20
2023-10-03T03:21:10.768Z,101025.58
2023-10-03T03:23:26.704Z,101028.31
2023-10-03T03:25:40.225Z,101026.06
2023-10-03T03:28:17.450Z,101025.76
2023-10-03T03:30:41.099Z,101021.69
2023-10-03T03:33:13.954Z,101022.02
2023-10-03T03:35:43.133Z,101020.73
2023-10-03T03:37:58.391Z,101015.23
2023-10-03T03:42:14.241Z,101012.13
2023-10-03T03:44:47.864Z,101022.63
2023-10-03T03:47:21.439Z,101026.98
2023-10-03T03:49:53.905Z,101024.08
2023-10-03T03:52:27.401Z,101029.81
2023-10-03T03:55:00.129Z,101030.38
2023-10-03T03:57:32.843Z,101025.76
2023-10-03T04:00:13.549Z,101026.14
2023-10-03T04:02:37.407Z,101026.77
2023-10-03T04:05:14.446Z,101024.49
2023-10-03T04:07:40.376Z,101028.23
2023-10-03T04:09:56.218Z,101033.29
2023-10-03T04:12:29.235Z,101026.91
2023-10-03T04:15:02.504Z,101022.50
2023-10-03T04:17:35.514Z,101020.09
2023-10-03T04:19:58.468Z,101016.25
2023-10-03T04:22:14.134Z,101008.63
2023-10-03T04:24:46.637Z,101013.44
2023-10-03T04:27:19.478Z,101007.06
2023-10-03T04:29:52.090Z,101005.11
2023-10-03T04:32:24.823Z,101002.50
2023-10-03T04:34:57.625Z,100996.20
2023-10-03T04:37:31.052Z,100990.31
2023-10-03T04:40:08.376Z,100985.52
2023-10-03T04:42:34.750Z,100983.81
2023-10-03T04:45:09.489Z,100983.34
2023-10-03T04:47:43.584Z,100991.23
2023-10-03T04:50:10.611Z,100993.67
2023-10-03T04:52:36.739Z,100991.95
2023-10-03T04:55:09.906Z,100990.20
2023-10-03T04:57:43.725Z,100994.00
2023-10-03T05:00:11.637Z,100998.98
2023-10-03T05:02:37.894Z,100998.49
2023-10-03T05:05:12.540Z,101003.56
2023-10-03T05:07:45.155Z,101004.52
2023-10-03T05:10:19.599Z,101001.63
2023-10-03T05:12:53.337Z,100990.66
2023-10-03T05:15:28.592Z,100992.11
2023-10-03T05:18:02.952Z,100996.52
2023-10-03T05:20:40.212Z,100996.44
2023-10-03T05:23:12.184Z,100991.80
2023-10-03T05:25:39.280Z,100987.38
2023-10-03T05:28:13.201Z,100993.77
2023-10-03T05:30:40.705Z,100998.24
2023-10-03T05:33:13.668Z,101004.17
2023-10-03T05:35:49.435Z,101007.74
2023-10-03T05:38:22.350Z,101012.88
2023-10-03T05:40:55.537Z,101021.23
2023-10-03T05:43:28.780Z,101021.14
2023-10-03T05:45:53.663Z,101016.35
2023-10-03T05:48:27.779Z,101010.13
2023-10-03T05:51:01.408Z,101002.89
2023-10-03T05:53:28.443Z,101004.31
2023-10-03T05:56:00.960Z,101001.64
2023-10-03T05:58:34.891Z,101004.39
2023-10-03T06:01:08.358Z,101001.31
2023-10-03T06:03:41.907Z,100999.27
2023-10-03T06:06:16.849Z,100989.51
2023-10-03T06:08:51.534Z,100987.69
2023-10-03T06:11:24.189Z,100988.33
2023-10-03T06:13:49.057Z,100992.73
2023-10-03T06:16:22.880Z,100990.28
2023-10-03T06:18:55.868Z,100988.63
2023-10-03T06:21:19.134Z,100991.63
2023-10-03T06:23:53.131Z,100988.27
2023-10-03T06:26:27.226Z,100991.11
2023-10-03T06:28:59.943Z,100984.11
2023-10-03T06:31:32.373Z,100993.26
2023-10-03T06:34:05.598Z,100993.40
2023-10-03T06:36:38.232Z,100993.40
2023-10-03T06:39:14.698Z,100993.34
2023-10-03T06:41:47.721Z,100992.88
2023-10-03T06:44:21.418Z,100986.59
2023-10-03T06:46:54.345Z,100988.55
2023-10-03T06:49:27.589Z,100986.50
2023-10-03T06:52:02.729Z,100989.66
2023-10-03T06:54:26.756Z,100991.16
2023-10-03T06:56:50.586Z,100989.89
2023-10-03T06:59:14.988Z,100987.13
2023-10-03T07:01:48.240Z,100990.13
2023-10-03T07:04:21.080Z,100991.33
2023-10-03T07:06:53.796Z,100995.29
2023-10-03T07:09:26.204Z,100996.64
2023-10-03T07:11:59.978Z,100998.71
2023-10-03T07:14:33.429Z,101005.98
2023-10-03T07:17:05.986Z,101012.48
2023-10-03T07:19:29.050Z,101007.66
2023-10-03T07:22:00.632Z,101013.59
2023-10-03T07:24:26.525Z,101018.73
2023-10-03T07:26:39.070Z,101022.55
2023-10-03T07:29:05.058Z,101024.22
2023-10-03T07:31:39.051Z,101026.03
2023-10-03T07:34:11.524Z,101028.31
2023-10-03T07:36:34.437Z,101027.45
2023-10-03T07:38:50.479Z,101027.15
2023-10-03T07:41:23.844Z,101029.60
2023-10-03T07:43:49.687Z,101033.21
2023-10-03T07:46:12.805Z,101033.70
2023-10-03T07:48:46.012Z,101038.84
2023-10-03T07:51:25.768Z,101044.13
2023-10-03T07:53:58.434Z,101046.27
2023-10-03T07:56:35.475Z,101045.09
2023-10-03T07:59:08.522Z,101045.39
2023-10-03T08:01:28.987Z,101046.76
2023-10-03T08:03:50.247Z,101050.94
2023-10-03T08:06:08.630Z,101052.42
2023-10-03T08:08:41.354Z,101052.52
2023-10-03T08:11:15.324Z,101048.01
2023-10-03T08:13:48.361Z,101050.70
2023-10-03T08:16:04.334Z,101054.64
2023-10-03T08:18:48.387Z,101061.50
2023-10-03T08:21:23.784Z,101064.35
2023-10-03T08:23:56.873Z,101068.06
2023-10-03T08:26:29.987Z,101075.88
2023-10-03T08:29:06.568Z,101078.09
2023-10-03T08:31:31.018Z,101084.73
2023-10-03T08:34:03.605Z,101092.38
2023-10-03T08:36:40.202Z,101092.53
2023-10-03T08:39:16.084Z,101090.48
2023-10-03T08:41:57.138Z,101093.70
2023-10-03T08:44:39.150Z,101099.92
2023-10-03T08:47:03.682Z,101104.27
2023-10-03T08:49:40.470Z,101104.90
2023-10-03T08:52:13.945Z,101103.35
2023-10-03T08:54:48.458Z,101100.66
2023-10-03T08:57:25.384Z,101103.42
2023-10-03T08:59:58.194Z,101102.80
2023-10-03T09:02:32.407Z,101103.98
2023-10-03T09:04:58.926Z,101107.13
2023-10-03T09:07:46.550Z,101112.41
2023-10-03T09:10:11.943Z,101117.15
2023-10-03T09:12:37.736Z,101114.52
2023-10-03T09:15:12.705Z,101110.65
2023-10-03T09:17:35.608Z,101110.48
2023-10-03T09:20:11.121Z,101113.25
2023-10-03T09:22:44.182Z,101114.27
2023-10-03T09:25:12.326Z,101112.86
2023-10-03T09:27:45.791Z,101115.15
2023-10-03T09:30:26.651Z,101115.15
2023-10-03T09:33:01.161Z,101117.66
2023-10-03T09:35:34.377Z,101113.09
2023-10-03T09:38:10.805Z,101117.65
2023-10-03T09:40:58.315Z,101115.04
2023-10-03T09:43:31.566Z,101120.00
2023-10-03T09:46:06.785Z,101120.88
2023-10-03T09:48:40.384Z,101118.05
2023-10-03T09:51:07.912Z,101118.38
2023-10-03T09:53:43.088Z,101123.91
2023-10-03T09:56:16.336Z,101122.91
2023-10-03T09:58:40.189Z,101119.20
2023-10-03T10:01:14.298Z,101123.56
2023-10-03T10:03:40.336Z,101127.44
2023-10-03T10:06:21.708Z,101129.64
2023-10-03T10:09:02.456Z,101130.90
2023-10-03T10:11:35.703Z,101133.19
2023-10-03T10:14:12.640Z,101133.05
2023-10-03T10:17:22.356Z,101130.68
2023-10-03T10:20:19.674Z,101131.31
2023-10-03T10:23:22.990Z,101136.04
2023-10-03T10:25:59.139Z,101134.94
2023-10-03T10:28:38.377Z,101134.78
2023-10-03T10:34:42.675Z,101139.14
2023-10-03T10:37:12.180Z,101145.78
2023-10-03T10:39:26.722Z,101150.67
2023-10-03T10:41:39.907Z,101156.60
2023-10-03T10:44:15.796Z,101159.60
2023-10-03T10:46:45.207Z,101164.09
2023-10-03T10:48:58.088Z,101165.66
2023-10-03T10:51:17.975Z,101165.90
2023-10-03T10:53:43.239Z,101170.79
2023-10-03T10:55:56.327Z,101171.74
2023-10-03T10:58:20.124Z,101172.77
2023-10-03T11:00:35.897Z,101169.00
2023-10-03T11:02:49.155Z,101174.05
2023-10-03T11:05:05.817Z,101176.82
2023-10-03T11:07:26.490Z,101173.98
2023-10-03T11:09:41.278Z,101179.05
2023-10-03T11:11:55.008Z,101182.35
2023-10-03T11:14:10.681Z,101178.65
2023-10-03T11:16:31.576Z,101183.78
2023-10-03T11:18:57.017Z,101185.83
2023-10-03T11:21:12.702Z,101183.86
2023-10-03T11:23:25.605Z,101186.40
2023-10-03T11:25:38.413Z,101184.34
2023-10-03T11:27:56.631Z,101183.02
2023-10-03T11:30:21.621Z,101185.99
2023-10-03T11:32:35.487Z,101188.67
2023-10-03T11:34:48.348Z,101189.86
2023-10-03T11:37:05.021Z,101194.43
2023-10-03T11:39:25.990Z,101194.13
2023-10-03T11:41:40.160Z,101198.57
2023-10-03T11:43:52.837Z,101200.54
2023-10-03T11:46:05.551Z,101204.80
2023-10-03T11:48:21.976Z,101208.89
2023-10-03T11:50:36.225Z,101213.20
2023-10-03T11:53:00.734Z,101214.06
2023-10-03T11:55:17.548Z,101218.72
2023-10-03T11:57:30.145Z,101218.70
2023-10-03T11:59:46.126Z,101222.11
2023-10-03T12:02:02.232Z,101230.37
2023-10-03T12:04:15.200Z,101231.80
2023-10-03T12:06:27.828Z,101235.42
2023-10-03T12:08:43.132Z,101234.40
2023-10-03T12:10:55.886Z,101240.55
2023-10-03T12:13:19.008Z,101244.88
2023-10-03T12:15:34.969Z,101247.40
2023-10-03T12:17:49.924Z,101250.23
2023-10-03T12:20:02.547Z,101253.30
2023-10-03T12:22:15.533Z,101252.59
2023-10-03T12:24:28.447Z,101252.50
2023-10-03T12:26:41.092Z,101260.96
2023-10-03T12:28:57.495Z,101266.80
2023-10-03T12:31:13.476Z,101269.63
2023-10-03T12:33:26.117Z,101271.36
2023-10-03T12:35:39.767Z,101275.36
2023-10-03T12:37:54.048Z,101278.36
2023-10-03T12:40:18.454Z,101281.84
2023-10-03T12:42:34.829Z,101286.42
2023-10-03T12:44:47.304Z,101292.42
2023-10-03T12:47:00.204Z,101293.63
2023-10-03T12:49:12.884Z,101296.52
2023-10-03T12:51:25.370Z,101299.77
2023-10-03T12:53:41.137Z,101295.76
2023-10-03T12:55:53.790Z,101300.10
2023-10-03T12:58:20.834Z,101303.55
2023-10-03T13:00:33.470Z,101300.89
2023-10-03T13:02:46.842Z,101301.91
2023-10-03T13:05:00.075Z,101303.17
2023-10-03T13:07:14.261Z,101312.16
2023-10-03T13:09:30.202Z,101323.05
2023-10-03T13:11:43.959Z,101326.44
2023-10-03T13:13:56.927Z,101331.40
2023-10-03T13:16:10.641Z,101337.92
2023-10-03T13:18:23.519Z,101343.60
2023-10-03T13:20:36.322Z,101344.73
2023-10-03T13:22:49.898Z,101353.15
2023-10-03T13:25:02.547Z,101355.61
2023-10-03T13:27:17.109Z,101361.75
2023-10-03T13:29:32.948Z,101364.59
2023-10-03T13:31:46.234Z,101366.25
2023-10-03T13:33:59.573Z,101365.77
2023-10-03T13:36:17.228Z,101368.38
2023-10-03T13:38:31.441Z,101370.59
2023-10-03T13:40:46.323Z,101375.39
2023-10-03T13:42:59.248Z,101380.67
2023-10-03T13:45:15.053Z,101383.19
2023-10-03T13:47:28.259Z,101389.02
2023-10-03T13:49:41.441Z,101391.77
2023-10-03T13:51:54.032Z,101392.57
2023-10-03T13:54:07.428Z,101391.12
2023-10-03T13:56:20.842Z,101400.29
2023-10-03T13:58:33.579Z,101399.09
2023-10-03T14:00:46.342Z,101404.05
2023-10-03T14:03:03.590Z,101410.84
2023-10-03T14:05:18.646Z,101418.31
2023-10-03T14:07:40.962Z,101425.48
2023-10-03T14:09:53.552Z,101425.95
2023-10-03T14:12:07.719Z,101434.62
2023-10-03T14:14:20.476Z,101436.67
2023-10-03T14:16:34.152Z,101443.40
2023-10-03T14:18:46.785Z,101447.65
2023-10-03T14:20:59.724Z,101451.04
2023-10-03T14:23:13.961Z,101455.76
2023-10-03T14:25:28.759Z,101460.27
2023-10-03T14:27:45.750Z,101461.37
2023-10-03T14:29:58.868Z,101466.34
2023-10-03T14:32:12.835Z,101469.10
2023-10-03T14:34:25.650Z,101476.75
2023-10-03T14:36:39.001Z,101477.47
2023-10-03T14:38:52.869Z,101489.61
2023-10-03T14:41:05.633Z,101491.10
2023-10-03T14:43:29.686Z,101494.66
2023-10-03T14:45:42.746Z,101497.28
2023-10-03T14:47:56.381Z,101506.75
2023-10-03T14:50:12.749Z,101507.48
2023-10-03T14:52:30.256Z,101517.18
2023-10-03T14:54:43.034Z,101526.88
2023-10-03T14:56:55.549Z,101535.70
2023-10-03T14:59:08.453Z,101539.21
2023-10-03T15:01:21.370Z,101538.05
2023-10-03T15:03:38.896Z,101538.78
2023-10-03T15:05:53.021Z,101544.56
2023-10-03T15:08:10.710Z,101550.17
2023-10-03T15:10:24.006Z,101551.05
2023-10-03T15:12:36.894Z,101550.88
2023-10-03T15:14:50.048Z,101558.45
2023-10-03T15:17:07.228Z,101563.98
2023-10-03T15:19:21.450Z,101571.10
2023-10-03T15:21:34.776Z,101569.52
2023-10-03T15:23:48.829Z,101572.98
2023-10-03T15:26:06.703Z,101579.61
2023-10-03T15:28:19.388Z,101592.79
2023-10-03T15:30:34.337Z,101596.58
2023-10-03T15:32:48.862Z,101605.58
2023-10-03T15:35:06.612Z,101610.88
2023-10-03T15:37:20.868Z,101611.66
2023-10-03T15:39:35.093Z,101620.10
2023-10-03T15:41:49.907Z,101627.30
2023-10-03T15:44:03.516Z,101626.62
2023-10-03T15:46:16.540Z,101628.06
2023-10-03T15:48:29.755Z,101630.77
2023-10-03T15:50:43.180Z,101630.21
2023-10-03T15:52:56.284Z,101632.11
2023-10-03T15:55:12.877Z,101636.77
2023-10-03T15:57:25.873Z,101643.24
2023-10-03T15:59:38.866Z,101642.38
2023-10-03T16:01:52.672Z,101645.36
2023-10-03T16:04:06.562Z,101649.96
2023-10-03T16:06:20.159Z,101653.86
2023-10-03T16:08:34.042Z,101658.98
2023-10-03T16:10:46.920Z,101656.23
2023-10-03T16:12:59.715Z,101657.49
2023-10-03T16:15:14.125Z,101663.55
2023-10-03T16:17:27.946Z,101664.29
2023-10-03T16:19:40.709Z,101668.16
2023-10-03T16:21:53.607Z,101664.95
2023-10-03T16:24:06.819Z,101662.61
2023-10-03T16:26:19.661Z,101659.09
2023-10-03T16:28:35.702Z,101665.13
2023-10-03T16:30:48.575Z,101672.41
2023-10-03T16:33:01.305Z,101675.83
2023-10-03T16:35:17.242Z,101679.22
2023-10-03T16:37:31.311Z,101683.36
2023-10-03T16:39:44.270Z,101681.88
2023-10-03T16:42:01.477Z,101692.41
2023-10-03T16:44:14.349Z,101691.41
2023-10-03T16:46:27.110Z,101698.13
2023-10-03T16:48:41.165Z,101700.58
2023-10-03T16:50:54.000Z,101710.98
2023-10-03T16:53:06.643Z,101718.13
2023-10-03T16:55:19.560Z,101715.64
2023-10-03T16:57:43.216Z,101717.90
2023-10-03T16:59:55.965Z,101722.68
2023-10-03T17:02:09.279Z,101724.66
2023-10-03T17:04:22.271Z,101727.56
2023-10-03T17:06:35.297Z,101733.02
2023-10-03T17:08:48.880Z,101733.20
2023-10-03T17:11:01.916Z,101737.40
2023-10-03T17:13:14.981Z,101741.02
2023-10-03T17:15:37.454Z,101747.19
2023-10-03T17:17:57.986Z,101748.70
2023-10-03T17:20:16.757Z,101753.77
2023-10-03T17:22:29.868Z,101750.85
2023-10-03T17:24:42.986Z,101753.95
2023-10-03T17:26:58.726Z,101752.02
2023-10-03T17:29:13.937Z,101755.09
2023-10-03T17:31:27.572Z,101754.97
2023-10-03T17:33:43.894Z,101758.09
2023-10-03T17:35:59.501Z,101756.80
2023-10-03T17:38:12.822Z,101759.91
2023-10-03T17:40:27.834Z,101758.67
2023-10-03T17:42:40.555Z,101760.23
2023-10-03T17:44:57.172Z,101760.19
2023-10-03T17:47:10.007Z,101761.07
2023-10-03T17:49:22.563Z,101767.96
2023-10-03T17:51:35.513Z,101768.79
2023-10-03T17:53:53.272Z,101775.07
2023-10-03T17:56:06.517Z,101773.48
2023-10-03T17:58:19.636Z,101774.90
2023-10-03T18:00:32.159Z,101778.92
2023-10-03T18:02:47.140Z,101784.84
2023-10-03T18:05:00.079Z,101781.36
2023-10-03T18:07:12.680Z,101784.91
2023-10-03T18:09:29.381Z,101787.25
2023-10-03T18:11:42.905Z,101787.43
2023-10-03T18:13:56.263Z,101787.31
2023-10-03T18:16:09.473Z,101786.38
2023-10-03T18:18:22.896Z,101786.31
2023-10-03T18:20:36.453Z,101787.61
2023-10-03T18:22:49.920Z,101787.39
2023-10-03T18:25:05.232Z,101787.10
2023-10-03T18:27:18.127Z,101789.17
2023-10-03T18:29:30.959Z,101783.26
2023-10-03T18:31:43.992Z,101792.20
2023-10-03T18:33:57.889Z,101794.09
2023-10-03T18:36:11.989Z,101796.77
2023-10-03T18:38:24.898Z,101794.41
2023-10-03T18:40:37.786Z,101794.98
2023-10-03T18:42:50.777Z,101796.69
2023-10-03T18:45:05.706Z,101802.02
2023-10-03T18:47:23.915Z,101808.02
2023-10-03T18:49:37.114Z,101808.92
2023-10-03T18:51:50.084Z,101805.69
2023-10-03T18:54:03.613Z,101806.17
2023-10-03T18:56:18.114Z,101806.71
2023-10-03T18:58:42.273Z,101813.48
2023-10-03T19:00:54.997Z,101815.05
2023-10-03T19:03:08.364Z,101812.81
2023-10-03T19:05:22.854Z,101811.98
2023-10-03T19:07:38.354Z,101821.16
2023-10-03T19:09:53.295Z,101824.38
2023-10-03T19:12:06.053Z,101825.69
2023-10-03T19:14:18.897Z,101827.02
2023-10-03T19:16:36.286Z,101824.35
2023-10-03T19:18:53.484Z,101824.52
2023-10-03T19:21:07.704Z,101823.86
2023-10-03T19:23:20.471Z,101829.48
2023-10-03T19:25:35.030Z,101824.88
2023-10-03T19:27:47.834Z,101825.36
2023-10-03T19:30:17.459Z,101828.48
2023-10-03T19:32:32.760Z,101831.65
2023-10-03T19:34:46.246Z,101837.20
2023-10-03T19:37:08.649Z,101839.03
2023-10-03T19:39:25.793Z,101844.02
2023-10-03T19:41:42.613Z,101845.21
2023-10-03T19:43:56.984Z,101848.00
2023-10-03T19:46:27.119Z,101843.11
2023-10-03T19:48:39.956Z,101842.80
2023-10-03T19:50:52.995Z,101846.86
2023-10-03T19:53:09.175Z,101846.64
2023-10-03T19:55:21.897Z,101848.58
2023-10-03T19:57:40.174Z,101846.69
2023-10-03T20:00:16.578Z,101845.13
2023-10-03T20:02:29.114Z,101848.80
2023-10-03T20:04:41.975Z,101850.76
2023-10-03T20:06:54.737Z,101852.98
2023-10-03T20:09:12.961Z,101852.35
2023-10-03T20:11:25.957Z,101853.64
2023-10-03T20:13:49.504Z,101853.00
2023-10-03T20:16:07.626Z,101852.23
2023-10-03T20:18:21.132Z,101852.48
2023-10-03T20:20:34.852Z,101854.21
2023-10-03T20:23:01.917Z,101858.59
2023-10-03T20:25:15.874Z,101865.42
2023-10-03T20:27:30.004Z,101864.32
2023-10-03T20:29:42.541Z,101870.90
2023-10-03T20:31:55.352Z,101877.51
2023-10-03T20:34:10.964Z,101871.64
2023-10-03T20:36:23.688Z,101873.95
2023-10-03T20:38:36.288Z,101871.72
2023-10-03T20:40:48.962Z,101875.29
2023-10-03T20:43:02.432Z,101875.29
2023-10-03T20:45:17.281Z,101879.82
2023-10-03T20:47:30.206Z,101877.69
2023-10-03T20:49:45.714Z,101881.27
2023-10-03T20:51:58.154Z,101881.41
2023-10-03T20:54:14.433Z,101882.05
2023-10-03T20:56:27.267Z,101882.73
2023-10-03T20:58:42.401Z,101879.35
2023-10-03T21:00:55.042Z,101877.16
2023-10-03T21:03:08.335Z,101876.86
2023-10-03T21:05:21.144Z,101876.95
2023-10-03T21:07:34.436Z,101878.98
2023-10-03T21:09:48.124Z,101875.80
2023-10-03T21:12:05.463Z,101879.30
2023-10-03T21:14:18.906Z,101877.46
2023-10-03T21:16:34.918Z,101883.26
2023-10-03T21:18:47.534Z,101882.15
2023-10-03T21:21:00.518Z,101878.58
2023-10-03T21:23:15.949Z,101880.25
2023-10-03T21:25:30.573Z,101883.98
2023-10-03T21:27:46.098Z,101882.15
2023-10-03T21:30:02.456Z,101886.60
2023-10-03T21:32:15.451Z,101883.40
2023-10-03T21:34:28.564Z,101882.25
2023-10-03T21:36:52.675Z,101887.54
2023-10-03T21:39:05.475Z,101890.55
2023-10-03T21:41:18.712Z,101894.04
2023-10-03T21:43:32.033Z,101892.48
2023-10-03T21:45:44.739Z,101894.68
2023-10-03T21:47:57.660Z,101891.54
2023-10-03T21:50:10.852Z,101897.66
2023-10-03T21:52:25.192Z,101900.77
2023-10-03T21:54:38.053Z,101896.89
2023-10-03T21:57:00.356Z,101908.44
2023-10-03T21:59:13.048Z,101911.52
2023-10-03T22:01:28.448Z,101911.60
2023-10-03T22:03:42.475Z,101912.32
2023-10-03T22:06:09.723Z,101911.59
2023-10-03T22:08:23.299Z,101913.75
2023-10-03T22:10:36.582Z,101913.48
2023-10-03T22:12:50.090Z,101913.30
2023-10-03T22:15:02.898Z,101913.00
2023-10-03T22:17:15.597Z,101920.05
2023-10-03T22:19:28.361Z,101922.31
2023-10-03T22:21:41.459Z,101924.77
2023-10-03T22:23:54.253Z,101919.67
2023-10-03T22:26:07.135Z,101917.80
2023-10-03T22:28:20.167Z,101918.77
2023-10-03T22:30:34.567Z,101922.08
2023-10-03T22:32:48.628Z,101918.83
2023-10-03T22:35:01.274Z,101917.05
2023-10-03T22:37:14.532Z,101917.45
2023-10-03T22:39:29.356Z,101921.08
2023-10-03T22:41:42.255Z,101922.05
2023-10-03T22:43:55.130Z,101922.85
2023-10-03T22:46:17.204Z,101924.08
2023-10-03T22:48:30.778Z,101922.70
2023-10-03T22:50:45.536Z,101925.42
2023-10-03T22:52:58.459Z,101924.28
2023-10-03T22:55:12.130Z,101925.22
2023-10-03T22:57:25.210Z,101922.20
2023-10-03T22:59:38.092Z,101919.09
2023-10-03T23:01:51.407Z,101918.74
2023-10-03T23:04:04.233Z,101914.84
2023-10-03T23:06:17.081Z,101916.44
2023-10-03T23:08:33.060Z,101915.92
2023-10-03T23:10:49.677Z,101914.95
2023-10-03T23:13:05.218Z,101919.77
2023-10-03T23:15:22.202Z,101922.14
2023-10-03T23:17:34.920Z,101926.46
2023-10-03T23:19:47.494Z,101921.83
2023-10-03T23:22:00.202Z,101923.90
2023-10-03T23:24:17.431Z,101923.50
2023-10-03T23:26:31.623Z,101924.86
2023-10-03T23:28:44.411Z,101920.55
2023-10-03T23:30:58.042Z,101922.16
2023-10-03T23:33:11.273Z,101921.95
2023-10-03T23:35:24.627Z,101924.23
2023-10-03T23:37:38.197Z,101922.48
2023-10-03T23:39:53.660Z,101928.75
2023-10-03T23:42:14.361Z,101924.25
2023-10-03T23:44:27.443Z,101923.09
2023-10-03T23:46:42.476Z,101924.17
2023-10-03T23:48:55.894Z,101916.40
2023-10-03T23:51:10.652Z,101915.90
2023-10-03T23:53:24.171Z,101916.48
2023-10-03T23:55:37.819Z,101914.70
2023-10-03T23:57:52.600Z,101917.98
